Tiempo atmosférico en la estación meteorológica de Nuñomoral, Cáceres (475 m.)



Fecha
DESCASC
Temp. máxima en grados centígrados (hora)
DESCASC
Temp. mínima en grados centígrados (hora)
DESCASC
Temp. media en grados centígrados
DESCASC
Racha de viento máxima en m/sg (hora)
DESCASC
Velocidad máxima media en intervalos de 10 minutos(hora)
DESCASC
Precipitaciones diarias en mm
DESCASC
Precipitaciones de 00:00 a 06:00 en mm
DESCASC
Precipitaciones de 06:00 a 12:00 en mm
DESCASC
Precipitaciones de 12:00 a 18:00 en mm
DESCASC
Precipitaciones de 18:00 a 24:00 en mm
DESCASC
29-03-2020 19.2 (16:30) -0.1 (08:30) 9.6 6.67 (17:20) 3.61 (17:30) 0 0 0 0 0
28-03-2020 17.8 (15:10) -0.7 (07:20) 8.5 6.94 (17:40) 3.61 (17:40) 0 0 0 0 0
27-03-2020 14.9 (14:40) 1.9 (07:50) 8.4 8.33 (17:30) 4.44 (11:20) 0 0 0 0 0
26-03-2020 19.2 (16:50) 6 (00:00) 12.6 11.11 (00:40) 6.94 (10:00) 0 0 0 0 0
25-03-2020 20.2 (17:00) 2.3 (00:00) 11.3 11.11 (23:00) 5 (18:10) 0 0 0 0 0
24-03-2020 18.5 (18:10) 2.7 (00:00) 10.6 8.89 (11:20) 5.28 (11:20) 0 0 0 0 0
23-03-2020 17.9 (15:40) 4.4 (00:00) 11.1 10.83 (16:00) 5 (16:00) 1 0 0.2 0.8 0
22-03-2020 16.7 (17:00) 2.5 (04:50) 9.6 8.06 (20:20) 3.06 (20:20) 2.6 0 0.4 0 2.2
21-03-2020 12.7 (17:40) 3.3 (00:00) 8 6.39 (02:10) 2.78 (02:40) 11.2 3.2 7.8 0.2 0
20-03-2020 10.8 (18:30) 7.9 (00:00) 9.4 5 (13:00) 1.67 (11:00) 22.8 0 7.6 11 4.2
19-03-2020 17.1 (16:50) 6.2 (00:00) 11.7 4.44 (13:10) 3.06 (13:10) 0 0 0 0 0
18-03-2020 21.3 (16:50) 4.2 (00:00) 12.7 3.61 (12:40) 1.94 (12:40) 0 0 0 0 0
17-03-2020 17.1 (15:20) 1 (00:00) 9.1 9.72 (12:30) 5.28 (13:10) 0.2 0.2 0 0 0
16-03-2020 7.2 (20:50) 3.5 (00:00) 5.3 11.67 (10:00) 5.28 (10:00) 24.8 2 8.8 8.2 5.8
15-03-2020 20.2 (13:50) 1.7 (00:00) 11 13.33 (15:30) 6.67 (20:30) 0.4 0 0 0 0.4
14-03-2020 23.5 (16:10) 4.4 (00:00) 14 6.11 (12:40) 3.33 (13:40) 0 0 0 0 0
13-03-2020 21 (16:00) 6.8 (07:50) 13.9 5 (14:50) 2.78 (15:10) 0 0 0 0 0
12-03-2020 24.8 (16:00) 7.1 (00:00) 15.9 7.5 (13:40) 3.61 (13:40) 0 0 0 0 0
11-03-2020 26.7 (15:30) 4.3 (00:00) 15.5 7.22 (15:20) 3.61 (14:10) 0 0 0 0 0
10-03-2020 22.8 (15:00) 4.6 (00:00) 13.7 7.78 (15:10) 5 (15:20) 0 0 0 0 0
09-03-2020 18.3 (17:00) 7 (00:00) 12.6 12.22 (11:10) 6.39 (09:40) 0 0 0 0 0
08-03-2020 15.2 (13:00) -1 (-00:0) 7.1 8.89 (18:10) 4.44 (18:10) 0 0 0 0 0
07-03-2020 19.5 (16:30) 3.7 (00:00) 11.6 8.61 (05:20) 5.28 (05:30) 0 0 0 0 0
06-03-2020 13.9 (16:00) 7.1 (00:00) 10.5 15.28 (10:30) 6.94 (10:30) 0 0 0 0 0
05-03-2020 14.5 (16:40) 8.9 (00:00) 11.7 11.67 (19:50) 6.11 (09:20) 1.8 0 1.6 0.2 0
04-03-2020 16.3 (15:40) 10.3 (00:00) 13.3 6.39 (14:30) 2.78 (15:20) 0 0 0 0 0
03-03-2020 11.5 (22:30) 5.3 (00:00) 8.4 6.39 (16:20) 3.33 (12:50) 0 0 0 0 0
02-03-2020 14.8 (05:10) 4.7 (00:00) 9.8 17.5 (05:50) 8.61 (05:50) 3.4 2.6 0.4 0.4 0
01-03-2020 16.7 (15:00) 6.9 (00:00) 11.8 12.5 (21:10) 4.72 (23:20) 8 0 0 0.6 7.4
29-02-2020 16.5 (15:10) 6.4 (00:00) 11.5 8.61 (03:10) 4.17 (15:40) 0.6 0 0.6 0 0

Gráficas

Temp. máximas Temp. mínimas Temp. medias Precipitaciones Rachas de viento máximas Velocidades máximas media en intervalos de 10 minutos

Datos horarios

Fecha y hora oficial Temperatura (ºC) Velocidad del viento (km/h) Dirección del viento Racha (km/h) Dirección de racha Precipitación (mm) Presión (hPa) Tendencia (hPa) Humedad (%)
2020-03-29 23:00:00 10 2 Noroeste 6 Noroeste 0 -- -- 74
2020-03-29 22:00:00 11.6 0 Calma 3 Noroeste 0 -- -- 68
2020-03-29 21:00:00 13.9 0 Calma 9 Sudoeste 0 -- -- 58
2020-03-29 20:00:00 17 7 Oeste 18 Oeste 0 -- -- 43
2020-03-29 19:00:00 17.8 8 Oeste 23 Oeste 0 -- -- 41
2020-03-29 18:00:00 18 10 Sudoeste 24 Sudoeste 0 -- -- 39
2020-03-29 17:00:00 18.7 5 Oeste 13 Este 0 -- -- 35
2020-03-29 16:00:00 18.2 4 Este 9 Este 0 -- -- 39
2020-03-29 15:00:00 16.9 2 Sur 12 Oeste 0 -- -- 44
2020-03-29 14:00:00 18 9 Sudoeste 14 Sudoeste 0 -- -- 34
2020-03-29 13:00:00 16.9 7 Este 16 Este 0 -- -- 40
2020-03-29 12:00:00 14.8 7 Este 13 Sudeste 0 -- -- 50
2020-03-29 11:00:00 9.5 0 Calma 5 Este 0 -- -- 69
2020-03-29 10:00:00 4.5 0 Calma 3 Nordeste 0 -- -- 91
2020-03-29 09:00:00 0.3 2 Norte 3 Norte 0 -- -- 96
2020-03-29 08:00:00 0.4 2 Norte 3 Norte 0 -- -- 94
2020-03-29 07:00:00 0.7 0 Calma 3 Norte 0 -- -- 94
2020-03-29 06:00:00 1.2 0 Calma 4 Norte 0 -- -- 92
2020-03-29 05:00:00 1.6 0 Calma 4 Norte 0 -- -- 91
2020-03-29 03:00:00 3.1 0 Calma 4 Noroeste 0 -- -- 88
2020-03-29 01:00:00 4.4 2 Norte 4 Norte 0 -- -- 85
2020-03-29 00:00:00 5.3 2 Norte 6 Noroeste 0 -- -- 81
2020-03-28 23:00:00 6.4 3 Norte 5 Norte 0 -- -- 77
2020-03-28 22:00:00 8.2 3 Norte 5 Norte 0 -- -- 71
2020-03-28 21:00:00 10.4 0 Calma 8 Norte 0 -- -- 66
2020-03-28 20:00:00 12.7 5 Norte 17 Oeste 0 -- -- 56
2020-03-28 19:00:00 15 12 Oeste 21 Oeste 0 -- -- 42
2020-03-28 18:00:00 15.9 10 Oeste 25 Oeste 0 -- -- 43
2020-03-28 17:00:00 17 8 Oeste 24 Sudoeste 0 -- -- 39
2020-03-28 16:00:00 17.3 8 Sur 22 Este 0 -- -- 37
2020-03-28 15:00:00 17.6 5 Sudoeste 22 Sudoeste 0 -- -- 37
2020-03-28 14:00:00 16.7 7 Este 17 Este 0 -- -- 34
2020-03-28 13:00:00 15.1 9 Este 18 Este 0 -- -- 36
2020-03-28 12:00:00 13.9 6 Sudeste 14 Sudeste 0 -- -- 43
2020-03-28 11:00:00 11.1 8 Este 12 Este 0 -- -- 54
2020-03-28 10:00:00 8 5 Este 8 Este 0 -- -- 75
2020-03-28 09:00:00 3.8 0 Calma 5 Norte 0 -- -- 94
2020-03-28 08:00:00 0.1 0 Calma 3 Sudeste 0 -- -- 97
2020-03-28 07:00:00 -0.6 2 Este 4 Este 0 -- -- 95
2020-03-28 06:00:00 -0.3 0 Calma 5 Este 0 -- -- 95
2020-03-28 05:00:00 0 0 Calma 4 Norte 0 -- -- 95
2020-03-28 04:00:00 0.4 2 Norte 5 Noroeste 0 -- -- 95
2020-03-28 03:00:00 0.4 0 Calma 4 Norte 0 -- -- 93
2020-03-28 02:00:00 1 0 Calma 5 Norte 0 -- -- 92
2020-03-28 01:00:00 1.7 0 Calma 4 Norte 0 -- -- 90
2020-03-28 00:00:00 2.9 2 Norte 5 Norte 0 -- -- 87
2020-03-27 23:00:00 3.9 2 Norte 4 Norte 0 -- -- 85
2020-03-27 22:00:00 5.4 0 Calma 3 Norte 0 -- -- 79
2020-03-27 21:00:00 7.2 0 Calma 10 Norte 0 -- -- 72
2020-03-27 20:00:00 9.3 5 Norte 17 Sudoeste 0 -- -- 65
2020-03-27 19:00:00 11.7 10 Oeste 23 Oeste 0 -- -- 52
2020-03-27 18:00:00 12.1 13 Sudoeste 30 Sudoeste 0 -- -- 52
2020-03-27 17:00:00 13.5 9 Oeste 20 Sudeste 0 -- -- 46
2020-03-27 16:00:00 14.5 8 Sudeste 24 Sudeste 0 -- -- 41
2020-03-27 15:00:00 14.2 11 Sudeste 24 Sur 0 -- -- 44
2020-03-27 14:00:00 14.1 7 Sur 26 Este 0 -- -- 35
2020-03-27 13:00:00 13.3 6 Este 28 Sudeste 0 -- -- 37
2020-03-27 12:00:00 12.9 14 Sudeste 29 Este 0 -- -- 41
2020-03-27 11:00:00 12 8 Este 19 Sudeste 0 -- -- 41
2020-03-27 10:00:00 9.1 4 Este 11 Sudoeste 0 -- -- 59
2020-03-27 09:00:00 4.8 5 Oeste 10 Sudoeste 0 -- -- 78
2020-03-27 08:00:00 1.9 2 Noroeste 8 Nordeste 0 -- -- 90
2020-03-27 07:00:00 2.7 4 Noroeste 8 Norte 0 -- -- 87
2020-03-27 06:00:00 4 4 Norte 10 Norte 0 -- -- 83
2020-03-27 05:00:00 5.8 3 Nordeste 6 Nordeste 0 -- -- 80
2020-03-27 04:00:00 6.7 0 Calma 4 Noroeste 0 -- -- 85
2020-03-27 03:00:00 6.1 0 Calma 8 Sudeste 0 -- -- 84
2020-03-27 02:00:00 6.8 4 Noroeste 17 Oeste 0 -- -- 86
2020-03-27 01:00:00 7.2 5 Oeste 12 Oeste 0 -- -- 85
2020-03-27 00:00:00 8.2 2 Oeste 9 Oeste 0 -- -- 81
2020-03-26 23:00:00 8.9 3 Noroeste 15 Norte 0 -- -- 80
2020-03-26 22:00:00 7.1 0 Calma 9 Oeste 0 -- -- 73
2020-03-26 21:00:00 8.8 4 Noroeste 11 Oeste 0 -- -- 62
2020-03-26 20:00:00 11.6 4 Noroeste 11 Oeste 0 -- -- 51
2020-03-26 19:00:00 17.7 4 Noroeste 21 Noroeste 0 -- -- 31
2020-03-26 18:00:00 18.7 7 Norte 20 Norte 0 -- -- 29
2020-03-26 17:00:00 19.1 7 Noroeste 28 Sudoeste 0 -- -- 30
2020-03-26 16:00:00 18.3 14 Oeste 30 Sudoeste 0 -- -- 32
2020-03-26 15:00:00 17.7 16 Oeste 37 Oeste 0 -- -- 39
2020-03-26 14:00:00 16.7 20 Oeste 40 Oeste 0 -- -- 44
2020-03-26 13:00:00 15.3 19 Oeste 31 Oeste 0 -- -- 50
2020-03-26 12:00:00 13.3 19 Oeste 37 Oeste 0 -- -- 61
2020-03-26 11:00:00 11.8 20 Oeste 37 Oeste 0 -- -- 65
2020-03-26 10:00:00 11.4 25 Oeste 35 Oeste 0 -- -- 67
2020-03-26 09:00:00 10.5 19 Oeste 26 Oeste 0 -- -- 72
2020-03-26 08:00:00 7.2 4 Oeste 12 Sudoeste 0 -- -- 88
2020-03-26 07:00:00 6.4 0 Calma 11 Noroeste 0 -- -- 88
2020-03-26 06:00:00 8.4 6 Norte 22 Noroeste 0 -- -- 79
2020-03-26 05:00:00 11.1 14 Oeste 29 Oeste 0 -- -- 70
2020-03-26 04:00:00 11.6 14 Oeste 28 Oeste 0 -- -- 68
2020-03-26 03:00:00 11.8 12 Oeste 23 Oeste 0 -- -- 69
2020-03-26 02:00:00 12.7 9 Oeste 31 Sudoeste 0 -- -- 66
2020-03-26 01:00:00 13.2 17 Oeste 40 Oeste 0 -- -- 64
2020-03-26 00:00:00 13.9 12 Oeste 32 Oeste 0 -- -- 62
2020-03-25 23:00:00 14.4 15 Oeste 40 Oeste 0 -- -- 61
2020-03-25 22:00:00 13.5 3 Noroeste 10 Noroeste 0 -- -- 67
2020-03-25 21:00:00 14.8 5 Sudoeste 17 Noroeste 0 -- -- 65
2020-03-25 20:00:00 15.2 2 Norte 18 Sudoeste 0 -- -- 59
2020-03-25 19:00:00 19 13 Sudoeste 37 Sudoeste 0 -- -- 40
2020-03-25 18:00:00 19.5 16 Oeste 27 Oeste 0 -- -- 34
2020-03-25 17:00:00 20.2 10 Oeste 26 Oeste 0 -- -- 35
2020-03-25 16:00:00 19.4 8 Noroeste 31 Oeste 0 -- -- 39
2020-03-25 15:00:00 19.2 8 Oeste 21 Oeste 0 -- -- 44
2020-03-25 14:00:00 17.2 4 Sudeste 18 Este 0 -- -- 55
2020-03-25 13:00:00 16.2 10 Este 21 Este 0 -- -- 64
2020-03-25 12:00:00 15.1 12 Este 18 Este 0 -- -- 65
2020-03-25 11:00:00 12.8 5 Sudeste 9 Sudeste 0 -- -- 74
2020-03-25 10:00:00 9.5 4 Sudeste 10 Sudeste 0 -- -- 89
2020-03-25 09:00:00 5.4 0 Calma 3 Noroeste 0 -- -- 98
2020-03-25 08:00:00 2.4 0 Calma 3 Norte 0 -- -- 97
2020-03-25 07:00:00 2.5 0 Calma 4 Norte 0 -- -- 96
2020-03-25 06:00:00 2.8 0 Calma 4 Norte 0 -- -- 96
2020-03-25 05:00:00 3.2 0 Calma 3 Norte 0 -- -- 96
2020-03-25 04:00:00 3.8 0 Calma 4 Norte 0 -- -- 95
2020-03-25 03:00:00 4.5 0 Calma 4 Norte 0 -- -- 95
2020-03-25 02:00:00 5.2 0 Calma 3 Norte 0 -- -- 95
2020-03-25 01:00:00 5.7 0 Calma 5 Norte 0 -- -- 93
2020-03-25 00:00:00 6.7 2 Norte 6 Noroeste 0 -- -- 92
2020-03-24 23:00:00 7.5 3 Norte 7 Norte 0 -- -- 89
2020-03-24 22:00:00 9.2 3 Noroeste 6 Sudoeste 0 -- -- 86
2020-03-24 21:00:00 11.1 0 Calma 5 Norte 0 -- -- 81
2020-03-24 20:00:00 13.6 0 Calma 10 Noroeste 0 -- -- 73
2020-03-24 19:00:00 16.4 2 Sur 9 Oeste 0 -- -- 60
2020-03-24 18:00:00 18.2 5 Sur 12 Oeste 0 -- -- 49
2020-03-24 17:00:00 17 4 Sudoeste 6 Sudoeste 0 -- -- 57
2020-03-24 16:00:00 17.1 2 Norte 14 Este 0 -- -- 55
2020-03-24 15:00:00 17.9 6 Sudeste 17 Sudeste 0 -- -- 48
2020-03-24 14:00:00 17.4 4 Sudeste 14 Sudeste 0 -- -- 50
2020-03-24 13:00:00 16.3 4 Oeste 12 Este 0 -- -- 53
2020-03-24 12:00:00 15.5 7 Este 32 Este 0 -- -- 55
2020-03-24 11:00:00 15.2 13 Este 24 Este 0 -- -- 62
2020-03-24 10:00:00 10.6 0 Calma 8 Noroeste 0 -- -- 89
2020-03-24 09:00:00 6 4 Noroeste 11 Oeste 0 -- -- 100
2020-03-24 08:00:00 2.9 2 Noroeste 6 Nordeste 0 -- -- 98
2020-03-24 07:00:00 3 2 Norte 6 Oeste 0 -- -- 97
2020-03-24 06:00:00 3.6 2 Norte 8 Norte 0 -- -- 97
2020-03-24 05:00:00 3.8 0 Calma 5 Norte 0 -- -- 97
2020-03-24 04:00:00 4.7 4 Norte 6 Norte 0 -- -- 97
2020-03-24 03:00:00 4.8 0 Calma 6 Norte 0 -- -- 97
2020-03-24 02:00:00 4.5 4 Norte 8 Oeste 0 -- -- 96
2020-03-24 01:00:00 5 3 Oeste 7 Norte 0 -- -- 96
2020-03-24 00:00:00 5.4 0 Calma 6 Noroeste 0 -- -- 94
2020-03-23 23:00:00 6.4 3 Noroeste 6 Oeste 0 -- -- 95
2020-03-23 22:00:00 7 4 Norte 8 Oeste 0 -- -- 92
2020-03-23 21:00:00 8.4 2 Norte 7 Oeste 0 -- -- 90
2020-03-23 20:00:00 10.2 5 Oeste 9 Sudoeste 0 -- -- 86
2020-03-23 19:00:00 13.1 6 Sudoeste 10 Sudoeste 0 -- -- 76
2020-03-23 18:00:00 15.1 5 Sudoeste 10 Sudoeste 0 -- -- 62
2020-03-23 17:00:00 13.2 3 Oeste 24 Sur 0.2 -- -- 79
2020-03-23 16:00:00 14.4 18 Este 39 Este 0.6 -- -- 69
2020-03-23 15:00:00 16.7 12 Sudeste 25 Este 0 -- -- 57
2020-03-23 14:00:00 16.1 9 Este 26 Este 0 -- -- 51
2020-03-23 13:00:00 15.7 3 Este 21 Este 0 -- -- 58
2020-03-23 12:00:00 14.9 3 Nordeste 14 Este 0 -- -- 64
2020-03-23 11:00:00 12.3 2 Oeste 9 Sudoeste 0 -- -- 79
2020-03-23 10:00:00 9.9 0 Calma 4 Este 0 -- -- 93
2020-03-23 09:00:00 6.3 3 Noroeste 7 Oeste 0.2 -- -- 99
2020-03-23 08:00:00 4.4 0 Calma 5 Este 0 -- -- 98
2020-03-23 07:00:00 4.7 0 Calma 8 Noroeste 0 -- -- 98
2020-03-23 06:00:00 4.5 0 Calma 8 Sudoeste 0 -- -- 97
2020-03-23 05:00:00 5 0 Calma 4 Oeste 0 -- -- 97
2020-03-23 04:00:00 5 3 Este 7 Este 0 -- -- 96
2020-03-23 03:00:00 6.3 2 Noroeste 5 Oeste 0 -- -- 96
2020-03-23 02:00:00 6.8 3 Norte 6 Noroeste 0 -- -- 95
2020-03-23 01:00:00 7.9 4 Noroeste 7 Noroeste 0 -- -- 95
2020-03-23 00:00:00 8.8 0 Calma 6 Norte 0 -- -- 94
2020-03-22 23:00:00 9.2 4 Norte 12 Oeste 0 -- -- 93
2020-03-22 22:00:00 10 0 Calma 7 Norte 1 -- -- 91
2020-03-22 21:00:00 10.9 0 Calma 29 Este 1.2 -- -- 89
2020-03-22 20:00:00 12.8 3 Norte 13 Este 0 -- -- 72
2020-03-22 19:00:00 14.8 4 Este 14 Sudeste 0 -- -- 63
2020-03-22 18:00:00 15.6 7 Este 14 Noroeste 0 -- -- 52
2020-03-22 17:00:00 16.7 4 Norte 13 Noroeste 0 -- -- 50
2020-03-22 16:00:00 15.5 4 Sudoeste 17 Noroeste 0 -- -- 54
2020-03-22 15:00:00 15.2 3 Este 13 Oeste 0 -- -- 54
2020-03-22 14:00:00 15 4 Sudoeste 14 Sur 0 -- -- 55
2020-03-22 13:00:00 13.7 4 Sudeste 14 Sur 0 -- -- 60
2020-03-22 12:00:00 12.3 4 Oeste 8 Sur 0 -- -- 75
2020-03-22 11:00:00 9.9 6 Este 12 Este 0 -- -- 89
2020-03-22 10:00:00 7.8 0 Calma 4 Oeste 0 -- -- 100
2020-03-22 09:00:00 5.2 0 Calma 4 Norte 0.2 -- -- 99
2020-03-22 08:00:00 4 0 Calma 7 Este 0.2 -- -- 99
2020-03-22 07:00:00 3.2 2 Noroeste 5 Norte 0 -- -- 99
2020-03-22 06:00:00 2.6 0 Calma 3 Norte 0 -- -- 98
2020-03-22 05:00:00 2.5 0 Calma 4 Norte 0 -- -- 98
2020-03-22 04:00:00 2.7 2 Norte 4 Norte 0 -- -- 98
2020-03-22 03:00:00 2.8 2 Norte 6 Noroeste 0 -- -- 97
2020-03-22 02:00:00 2.7 0 Calma 5 Noroeste 0 -- -- 97
2020-03-22 01:00:00 2.8 3 Norte 5 Norte 0 -- -- 96
2020-03-22 00:00:00 3.3 2 Norte 4 Noroeste 0 -- -- 96
2020-03-21 23:00:00 3.7 3 Norte 5 Norte 0 -- -- 95
2020-03-21 22:00:00 4.5 0 Calma 6 Norte 0 -- -- 94
2020-03-21 21:00:00 5.7 3 Noroeste 6 Noroeste 0 -- -- 92
2020-03-21 20:00:00 7.6 2 Noroeste 6 Oeste 0 -- -- 87
2020-03-21 19:00:00 11.1 3 Noroeste 9 Sudoeste 0 -- -- 74
2020-03-21 18:00:00 12.5 5 Oeste 10 Oeste 0 -- -- 62
2020-03-21 17:00:00 11.7 4 Oeste 8 Sur 0 -- -- 69
2020-03-21 16:00:00 10.2 2 Noroeste 9 Oeste 0 -- -- 79
2020-03-21 15:00:00 9.3 2 Oeste 7 Oeste 0 -- -- 83
2020-03-21 14:00:00 9.2 4 Nordeste 13 Este 0 -- -- 84
2020-03-21 13:00:00 8.2 6 Este 12 Este 0.2 -- -- 90
2020-03-21 12:00:00 8 3 Nordeste 11 Este 0.6 -- -- 94
2020-03-21 11:00:00 7.6 4 Este 13 Sudeste 1 -- -- 94
2020-03-21 10:00:00 7.8 3 Nordeste 7 Sudeste 0.6 -- -- 95
2020-03-21 09:00:00 7.7 4 Norte 6 Noroeste 1.2 -- -- 96
2020-03-21 08:00:00 8.3 0 Calma 5 Nordeste 2 -- -- 97
2020-03-21 07:00:00 8.5 0 Calma 5 Oeste 2.4 -- -- 97
2020-03-21 06:00:00 8.5 3 Oeste 5 Sudoeste 0.8 -- -- 97
2020-03-21 05:00:00 8.5 4 Sudoeste 7 Sudoeste 0.2 -- -- 96
2020-03-21 04:00:00 9.1 2 Este 19 Sudoeste 0.4 -- -- 94
2020-03-21 03:00:00 9.9 3 Sur 23 Sudoeste 1 -- -- 91
2020-03-21 02:00:00 9.8 2 Sur 4 Sur 0.6 -- -- 98
2020-03-21 01:00:00 9.8 2 Sudeste 5 Norte 0.2 -- -- 98
2020-03-21 00:00:00 9.9 0 Calma 5 Oeste 0.2 -- -- 97
2020-03-20 23:00:00 10.1 3 Oeste 6 Oeste 0 -- -- 97
2020-03-20 22:00:00 10.2 0 Calma 4 Nordeste 0 -- -- 97
2020-03-20 21:00:00 10.5 2 Nordeste 9 Este 4 -- -- 97
2020-03-20 20:00:00 10.6 0 Calma 3 Oeste 0 -- -- 96
2020-03-20 19:00:00 10.8 0 Calma 4 Oeste 0 -- -- 96
2020-03-20 18:00:00 10.7 3 Oeste 5 Oeste 0.2 -- -- 95
2020-03-20 17:00:00 10.3 4 Sudoeste 7 Sudoeste 1.2 -- -- 95
2020-03-20 16:00:00 10.2 0 Calma 8 Oeste 1.4 -- -- 95
2020-03-20 15:00:00 9.7 4 Oeste 10 Noroeste 0.6 -- -- 95
2020-03-20 14:00:00 9.6 3 Sudoeste 6 Sur 1.8 -- -- 94
2020-03-20 13:00:00 10.2 4 Noroeste 18 Oeste 5.8 -- -- 95
2020-03-20 12:00:00 10.3 0 Calma 6 Sur 3 -- -- 97
2020-03-20 11:00:00 9.7 6 Este 9 Este 3.6 -- -- 97
2020-03-20 10:00:00 9.3 0 Calma 3 Sudeste 1 -- -- 96
2020-03-20 09:00:00 8.8 0 Calma 3 Sudoeste 0 -- -- 97
2020-03-20 08:00:00 7.9 0 Calma 2 Este 0 -- -- 96
2020-03-20 07:00:00 8 0 Calma 3 Sudeste 0 -- -- 96
2020-03-20 06:00:00 8 0 Calma 5 Norte 0 -- -- 95
2020-03-20 05:00:00 8.3 0 Calma 2 Este 0 -- -- 95
2020-03-20 04:00:00 8.2 0 Calma 3 Norte 0 -- -- 95
2020-03-20 03:00:00 8.5 3 Norte 5 Norte 0 -- -- 94
2020-03-20 02:00:00 8.8 0 Calma 4 Norte 0 -- -- 94
2020-03-20 01:00:00 8.8 0 Calma 3 Noroeste 0 -- -- 93
2020-03-20 00:00:00 8.8 0 Calma 4 Sudoeste 0 -- -- 93
2020-03-19 23:00:00 9.5 3 Norte 4 Noroeste 0 -- -- 91
2020-03-19 22:00:00 10.4 3 Norte 4 Norte 0 -- -- 88
2020-03-19 21:00:00 11.5 0 Calma 5 Norte 0 -- -- 85
2020-03-19 20:00:00 13.1 2 Noroeste 4 Norte 0 -- -- 79
2020-03-19 19:00:00 14.8 3 Nordeste 9 Norte 0 -- -- 72
2020-03-19 18:00:00 16 5 Nordeste 15 Este 0 -- -- 67
2020-03-19 17:00:00 17.1 6 Este 14 Este 0 -- -- 62
2020-03-19 16:00:00 16.8 6 Este 14 Este 0 -- -- 61
2020-03-19 15:00:00 16.3 8 Este 12 Este 0 -- -- 64
2020-03-19 14:00:00 16.3 2 Este 16 Este 0 -- -- 62
2020-03-19 13:00:00 15.4 10 Este 15 Este 0 -- -- 62
2020-03-19 12:00:00 13.6 6 Este 9 Este 0 -- -- 74
2020-03-19 11:00:00 11 0 Calma 3 Este 0 -- -- 86
2020-03-19 10:00:00 8.8 0 Calma 4 Oeste 0 -- -- 95
2020-03-19 09:00:00 7 3 Este 5 Este 0 -- -- 97
2020-03-19 08:00:00 6.3 3 Noroeste 4 Noroeste 0 -- -- 96
2020-03-19 07:00:00 6.4 0 Calma 2 Nordeste 0 -- -- 95
2020-03-19 06:00:00 6.9 0 Calma 3 Este 0 -- -- 95
2020-03-19 05:00:00 7.2 0 Calma 5 Este 0 -- -- 94
2020-03-19 04:00:00 7.7 3 Norte 4 Norte 0 -- -- 93
2020-03-19 03:00:00 8.2 2 Noroeste 4 Noroeste 0 -- -- 93
2020-03-19 02:00:00 9 0 Calma 8 Noroeste 0 -- -- 92
2020-03-19 01:00:00 9.3 0 Calma 4 Norte 0 -- -- 91
2020-03-19 00:00:00 10 2 Norte 5 Norte 0 -- -- 90
2020-03-18 23:00:00 10.7 0 Calma 5 Norte 0 -- -- 87
2020-03-18 22:00:00 11.5 3 Noroeste 6 Oeste 0 -- -- 84
2020-03-18 21:00:00 12.9 2 Noroeste 4 Noroeste 0 -- -- 80
2020-03-18 20:00:00 14.8 3 Norte 4 Norte 0 -- -- 74
2020-03-18 19:00:00 17.5 0 Calma 5 Nordeste 0 -- -- 69
2020-03-18 18:00:00 19.8 0 Calma 4 Sudoeste 0 -- -- 56
2020-03-18 17:00:00 21.2 0 Calma 6 Sudoeste 0 -- -- 38
2020-03-18 16:00:00 20.7 2 Sur 5 Sudoeste 0 -- -- 40
2020-03-18 15:00:00 19.9 3 Sudoeste 6 Sur 0 -- -- 45
2020-03-18 14:00:00 19 3 Noroeste 9 Este 0 -- -- 45
2020-03-18 13:00:00 18.2 6 Este 13 Sudeste 0 -- -- 51
2020-03-18 12:00:00 16.1 3 Sudeste 8 Sudeste 0 -- -- 62
2020-03-18 11:00:00 12.3 0 Calma 5 Noroeste 0 -- -- 82
2020-03-18 10:00:00 9.6 0 Calma 5 Norte 0 -- -- 95
2020-03-18 09:00:00 6.2 2 Noroeste 5 Noroeste 0 -- -- 99
2020-03-18 08:00:00 4.2 0 Calma 6 Norte 0 -- -- 97
2020-03-18 07:00:00 4.7 4 Noroeste 8 Norte 0 -- -- 97
2020-03-18 06:00:00 4.4 0 Calma 6 Norte 0 -- -- 96
2020-03-18 05:00:00 4.8 0 Calma 4 Norte 0 -- -- 96
2020-03-18 04:00:00 5.2 2 Noroeste 8 Norte 0 -- -- 96
2020-03-18 03:00:00 5.6 3 Noroeste 7 Oeste 0 -- -- 95
2020-03-18 02:00:00 5.6 4 Noroeste 10 Oeste 0 -- -- 95
2020-03-18 01:00:00 6.1 3 Norte 12 Norte 0 -- -- 92
2020-03-18 00:00:00 6.4 4 Noroeste 9 Norte 0 -- -- 93
2020-03-17 23:00:00 6.6 5 Norte 9 Norte 0 -- -- 91
2020-03-17 22:00:00 7.5 4 Noroeste 8 Oeste 0 -- -- 88
2020-03-17 21:00:00 8.9 4 Norte 10 Sudoeste 0 -- -- 84
2020-03-17 20:00:00 10.8 3 Noroeste 12 Oeste 0 -- -- 78
2020-03-17 19:00:00 13.9 4 Oeste 11 Sudoeste 0 -- -- 66
2020-03-17 18:00:00 15.7 3 Sur 22 Este 0 -- -- 55
2020-03-17 17:00:00 16.5 5 Sudeste 22 Sudeste 0 -- -- 50
2020-03-17 16:00:00 16.7 10 Este 22 Sudeste 0 -- -- 49
2020-03-17 15:00:00 16.5 13 Este 28 Sudeste 0 -- -- 45
2020-03-17 14:00:00 16.1 15 Este 31 Este 0 -- -- 48
2020-03-17 13:00:00 15.2 14 Este 35 Este 0 -- -- 47
2020-03-17 12:00:00 14.2 15 Este 32 Este 0 -- -- 60
2020-03-17 11:00:00 11.2 6 Noroeste 15 Sudoeste 0 -- -- 72
2020-03-17 10:00:00 5.8 4 Noroeste 10 Oeste 0 -- -- 97
2020-03-17 09:00:00 2.8 3 Noroeste 12 Oeste 0 -- -- 98
2020-03-17 08:00:00 1.6 5 Noroeste 9 Oeste 0 -- -- 98
2020-03-17 07:00:00 1.1 5 Noroeste 10 Sudoeste 0 -- -- 96
2020-03-17 06:00:00 1.5 4 Noroeste 14 Noroeste 0 -- -- 96
2020-03-17 05:00:00 1.9 4 Norte 9 Noroeste 0 -- -- 95
2020-03-17 04:00:00 2.7 0 Calma 6 Norte 0 -- -- 95
2020-03-17 03:00:00 4.4 3 Noroeste 9 Sudoeste 0 -- -- 95
2020-03-17 02:00:00 4.8 6 Oeste 10 Oeste 0.2 -- -- 95
2020-03-17 01:00:00 4.9 3 Noroeste 9 Noroeste 0 -- -- 94
2020-03-17 00:00:00 5 3 Sudoeste 23 Sudeste 1 -- -- 94
2020-03-16 23:00:00 5.4 8 Este 24 Este 1.2 -- -- 91
2020-03-16 22:00:00 6.1 6 Nordeste 30 Nordeste 0.6 -- -- 90
2020-03-16 21:00:00 7 9 Este 35 Norte 0.8 -- -- 82
2020-03-16 20:00:00 6.2 3 Norte 28 Este 1 -- -- 89
2020-03-16 19:00:00 6.1 5 Sudoeste 22 Este 1.2 -- -- 89
2020-03-16 18:00:00 5.8 7 Sudoeste 28 Norte 2 -- -- 88
2020-03-16 17:00:00 6.4 8 Oeste 33 Noroeste 1.8 -- -- 82
2020-03-16 16:00:00 5.5 9 Noroeste 23 Noroeste 1.8 -- -- 84
2020-03-16 15:00:00 5.9 13 Oeste 40 Sudoeste 0.6 -- -- 82
2020-03-16 14:00:00 5.3 13 Oeste 42 Sudoeste 1.2 -- -- 85
2020-03-16 13:00:00 5.5 12 Oeste 35 Sudoeste 0.8 -- -- 80
2020-03-16 12:00:00 5.3 14 Oeste 42 Oeste 1.6 -- -- 83
2020-03-16 11:00:00 4.9 12 Oeste 33 Sudoeste 1 -- -- 82
2020-03-16 10:00:00 4.5 19 Sudoeste 42 Sudoeste 1 -- -- 84
2020-03-16 09:00:00 4.4 14 Oeste 36 Oeste 0.8 -- -- 83
2020-03-16 08:00:00 3.8 10 Oeste 33 Oeste 2.4 -- -- 86
2020-03-16 07:00:00 3.6 12 Oeste 29 Sudoeste 2 -- -- 87
2020-03-16 06:00:00 3.9 12 Oeste 24 Sudoeste 1 -- -- 85
2020-03-16 05:00:00 4 10 Oeste 23 Noroeste 0.4 -- -- 84
2020-03-16 04:00:00 4.1 7 Sudoeste 30 Sudoeste 0.6 -- -- 82
2020-03-16 03:00:00 4.8 4 Oeste 28 Oeste 0 -- -- 74
2020-03-16 02:00:00 4.8 10 Este 22 Sudoeste 0 -- -- 73
2020-03-16 01:00:00 4.9 12 Oeste 34 Sudoeste 0 -- -- 75
2020-03-16 00:00:00 5.3 6 Oeste 40 Oeste 0 -- -- 74
2020-03-15 23:00:00 5.4 16 Sudoeste 37 Sudoeste 0.2 -- -- 77
2020-03-15 22:00:00 6.5 16 Sudoeste 33 Sudoeste 0.2 -- -- 78
2020-03-15 21:00:00 9.2 15 Oeste 47 Oeste 0 -- -- 68
2020-03-15 20:00:00 11.1 3 Oeste 10 Oeste 0 -- -- 64
2020-03-15 19:00:00 14.4 5 Norte 22 Noroeste 0 -- -- 51
2020-03-15 18:00:00 14.7 15 Oeste 42 Oeste 0 -- -- 52
2020-03-15 17:00:00 17.9 6 Noroeste 17 Noroeste 0 -- -- 53
2020-03-15 16:00:00 15.3 11 Noroeste 48 Oeste 0 -- -- 60
2020-03-15 15:00:00 19.7 12 Sur 40 Sudeste 0 -- -- 50
2020-03-15 14:00:00 19.8 12 Sudoeste 34 Sur 0 -- -- 48
2020-03-15 13:00:00 19.4 10 Sur 26 Oeste 0 -- -- 54
2020-03-15 12:00:00 18.5 9 Sur 22 Oeste 0 -- -- 51
2020-03-15 11:00:00 14.2 5 Este 10 Este 0 -- -- 59
2020-03-15 10:00:00 8.3 0 Calma 3 Nordeste 0 -- -- 79
2020-03-15 09:00:00 3.9 0 Calma 5 Este 0 -- -- 94
2020-03-15 08:00:00 1.7 0 Calma 4 Noroeste 0 -- -- 93
2020-03-15 07:00:00 2.2 2 Norte 5 Noroeste 0 -- -- 94
2020-03-15 06:00:00 2.1 3 Sudeste 5 Norte 0 -- -- 91
2020-03-15 05:00:00 2.7 0 Calma 3 Norte 0 -- -- 93
2020-03-15 04:00:00 3 0 Calma 2 Norte 0 -- -- 90
2020-03-15 03:00:00 3.8 2 Norte 5 Norte 0 -- -- 88
2020-03-15 02:00:00 4.8 2 Noroeste 5 Norte 0 -- -- 84
2020-03-15 01:00:00 5.6 3 Noroeste 5 Norte 0 -- -- 80
2020-03-15 00:00:00 6.4 2 Norte 7 Norte 0 -- -- 78
2020-03-14 23:00:00 7.4 3 Noroeste 6 Norte 0 -- -- 74
2020-03-14 22:00:00 8.9 3 Norte 8 Noroeste 0 -- -- 70
2020-03-14 21:00:00 11.1 4 Norte 8 Noroeste 0 -- -- 63
2020-03-14 20:00:00 14.1 4 Norte 9 Norte 0 -- -- 56
2020-03-14 19:00:00 20.1 5 Oeste 13 Sur 0 -- -- 42
2020-03-14 18:00:00 23.5 3 Sur 14 Sudeste 0 -- -- 30
2020-03-14 17:00:00 22.9 8 Este 18 Este 0 -- -- 24
2020-03-14 16:00:00 23.2 8 Sudeste 18 Este 0 -- -- 24
2020-03-14 15:00:00 22.8 8 Sudeste 19 Este 0 -- -- 26
2020-03-14 14:00:00 22 9 Sudeste 21 Este 0 -- -- 32
2020-03-14 13:00:00 20.5 10 Este 22 Este 0 -- -- 40
2020-03-14 12:00:00 19.2 3 Sur 8 Este 0 -- -- 47
2020-03-14 11:00:00 16 2 Sudeste 5 Sudeste 0 -- -- 53
2020-03-14 10:00:00 10.4 0 Calma 4 Norte 0 -- -- 86
2020-03-14 09:00:00 5.9 3 Norte 5 Nordeste 0 -- -- 96
2020-03-14 08:00:00 4.5 4 Oeste 11 Oeste 0 -- -- 96
2020-03-14 07:00:00 4.7 3 Norte 8 Norte 0 -- -- 96
2020-03-14 06:00:00 4.6 2 Nordeste 6 Norte 0 -- -- 95
2020-03-14 05:00:00 4.9 2 Norte 5 Norte 0 -- -- 94
2020-03-14 04:00:00 5.4 0 Calma 6 Este 0 -- -- 94
2020-03-14 03:00:00 6.2 0 Calma 6 Sudeste 0 -- -- 93
2020-03-14 02:00:00 7 4 Norte 9 Oeste 0 -- -- 93
2020-03-14 01:00:00 7.5 4 Nordeste 7 Norte 0 -- -- 90
2020-03-14 00:00:00 8.7 3 Nordeste 8 Nordeste 0 -- -- 88
2020-03-13 23:00:00 10.1 4 Noroeste 10 Oeste 0 -- -- 85
2020-03-13 22:00:00 11.2 4 Noroeste 9 Norte 0 -- -- 82
2020-03-13 21:00:00 12.8 4 Noroeste 9 Norte 0 -- -- 77
2020-03-13 20:00:00 15.3 3 Nordeste 12 Oeste 0 -- -- 71
2020-03-13 19:00:00 18.6 4 Noroeste 14 Oeste 0 -- -- 59
2020-03-13 18:00:00 19.5 5 Sur 17 Este 0 -- -- 57
2020-03-13 17:00:00 20.5 8 Este 17 Norte 0 -- -- 55
2020-03-13 16:00:00 21 10 Este 17 Este 0 -- -- 53
2020-03-13 15:00:00 20.6 9 Este 18 Este 0 -- -- 55
2020-03-13 14:00:00 20.3 6 Sudeste 17 Sudoeste 0 -- -- 55
2020-03-13 13:00:00 18.8 4 Sudeste 14 Este 0 -- -- 59
2020-03-13 12:00:00 17.3 5 Este 12 Este 0 -- -- 63
2020-03-13 11:00:00 15 3 Este 9 Este 0 -- -- 71
2020-03-13 10:00:00 11.9 2 Este 5 Este 0 -- -- 86
2020-03-13 09:00:00 8.5 0 Calma 6 Norte 0 -- -- 96
2020-03-13 08:00:00 6.8 2 Noroeste 5 Noroeste 0 -- -- 94
2020-03-13 07:00:00 7.2 3 Noroeste 4 Noroeste 0 -- -- 95
2020-03-13 06:00:00 7.4 0 Calma 4 Norte 0 -- -- 93
2020-03-13 05:00:00 8.3 0 Calma 5 Norte 0 -- -- 91
2020-03-13 04:00:00 8.9 2 Norte 8 Norte 0 -- -- 90
2020-03-13 03:00:00 10 4 Norte 9 Norte 0 -- -- 89
2020-03-13 02:00:00 10.5 4 Norte 10 Norte 0 -- -- 87
2020-03-13 01:00:00 11 5 Norte 10 Noroeste 0 -- -- 85
2020-03-13 00:00:00 11.5 4 Norte 9 Noroeste 0 -- -- 83
2020-03-12 23:00:00 12.4 5 Noroeste 8 Norte 0 -- -- 80
2020-03-12 22:00:00 13.9 5 Noroeste 9 Oeste 0 -- -- 74
2020-03-12 21:00:00 15.9 5 Noroeste 8 Oeste 0 -- -- 68
2020-03-12 20:00:00 18.1 0 Calma 5 Norte 0 -- -- 62
2020-03-12 19:00:00 20.9 0 Calma 13 Sudoeste 0 -- -- 53
2020-03-12 18:00:00 23.3 9 Oeste 16 Oeste 0 -- -- 39
2020-03-12 17:00:00 23.9 5 Sur 17 Sur 0 -- -- 38
2020-03-12 16:00:00 24.8 8 Sur 18 Sur 0 -- -- 36
2020-03-12 15:00:00 24.2 11 Sudoeste 21 Sudoeste 0 -- -- 39
2020-03-12 14:00:00 23.8 10 Oeste 27 Oeste 0 -- -- 39
2020-03-12 13:00:00 23.8 8 Sudoeste 20 Oeste 0 -- -- 40
2020-03-12 12:00:00 22.5 2 Nordeste 9 Este 0 -- -- 44
2020-03-12 11:00:00 18.1 6 Este 10 Este 0 -- -- 62
2020-03-12 10:00:00 12.5 3 Este 8 Sudeste 0 -- -- 82
2020-03-12 09:00:00 7.7 0 Calma 2 Norte 0 -- -- 96
2020-03-12 08:00:00 7.3 0 Calma 3 Este 0 -- -- 93
2020-03-12 07:00:00 7.6 0 Calma 4 Este 0 -- -- 93
2020-03-12 06:00:00 7.9 0 Calma 3 Norte 0 -- -- 93
2020-03-12 05:00:00 8.4 0 Calma 4 Este 0 -- -- 91
2020-03-12 04:00:00 9.1 0 Calma 4 Norte 0 -- -- 89
2020-03-12 03:00:00 9.7 0 Calma 4 Norte 0 -- -- 89
2020-03-12 02:00:00 10.4 0 Calma 4 Noroeste 0 -- -- 87
2020-03-12 01:00:00 11.4 3 Noroeste 6 Oeste 0 -- -- 84
2020-03-12 00:00:00 12.1 3 Noroeste 6 Noroeste 0 -- -- 83
2020-03-11 23:00:00 12.8 3 Noroeste 6 Noroeste 0 -- -- 81
2020-03-11 22:00:00 13.9 4 Noroeste 6 Noroeste 0 -- -- 78
2020-03-11 21:00:00 15.7 3 Noroeste 5 Oeste 0 -- -- 74
2020-03-11 20:00:00 17.7 2 Oeste 5 Oeste 0 -- -- 68
2020-03-11 19:00:00 20.3 0 Calma 3 Noroeste 0 -- -- 61
2020-03-11 18:00:00 22.6 2 Sudeste 10 Sudoeste 0 -- -- 55
2020-03-11 17:00:00 24.4 6 Sudoeste 13 Sudoeste 0 -- -- 42
2020-03-11 16:00:00 26 8 Sur 26 Este 0 -- -- 36
2020-03-11 15:00:00 25.4 8 Este 21 Este 0 -- -- 43
2020-03-11 14:00:00 24.1 12 Este 19 Sudeste 0 -- -- 47
2020-03-11 13:00:00 22.5 9 Este 16 Sudeste 0 -- -- 52
2020-03-11 12:00:00 20 6 Este 10 Este 0 -- -- 56
2020-03-11 11:00:00 16.5 4 Sudeste 6 Sudeste 0 -- -- 63
2020-03-11 10:00:00 10.6 0 Calma 3 Noroeste 0 -- -- 90
2020-03-11 09:00:00 6.8 0 Calma 3 Norte 0 -- -- 98
2020-03-11 08:00:00 4.3 0 Calma 3 Norte 0 -- -- 95
2020-03-11 07:00:00 4.7 0 Calma 3 Norte 0 -- -- 95
2020-03-11 06:00:00 5 0 Calma 4 Norte 0 -- -- 94
2020-03-11 05:00:00 5.5 0 Calma 4 Norte 0 -- -- 94
2020-03-11 04:00:00 6.1 0 Calma 4 Noroeste 0 -- -- 93
2020-03-11 03:00:00 6.8 2 Noroeste 4 Norte 0 -- -- 93
2020-03-11 02:00:00 7.6 0 Calma 4 Norte 0 -- -- 92
2020-03-11 01:00:00 8.3 2 Noroeste 4 Noroeste 0 -- -- 90
2020-03-11 00:00:00 8.7 0 Calma 4 Norte 0 -- -- 88
2020-03-10 23:00:00 9.9 2 Norte 5 Norte 0 -- -- 85
2020-03-10 22:00:00 11.5 3 Noroeste 5 Norte 0 -- -- 82
2020-03-10 21:00:00 13.4 2 Noroeste 7 Norte 0 -- -- 75
2020-03-10 20:00:00 16.5 4 Noroeste 7 Oeste 0 -- -- 67
2020-03-10 19:00:00 20.5 0 Calma 15 Este 0 -- -- 56
2020-03-10 18:00:00 22.5 10 Este 19 Este 0 -- -- 46
2020-03-10 17:00:00 22.7 13 Este 24 Este 0 -- -- 45
2020-03-10 16:00:00 22.8 13 Este 28 Este 0 -- -- 46
2020-03-10 15:00:00 22.8 15 Este 27 Este 0 -- -- 41
2020-03-10 14:00:00 21.8 10 Este 21 Este 0 -- -- 42
2020-03-10 13:00:00 20.3 4 Sudeste 10 Sudeste 0 -- -- 40
2020-03-10 12:00:00 16.9 3 Sur 6 Este 0 -- -- 51
2020-03-10 11:00:00 13.3 4 Este 8 Este 0 -- -- 65
2020-03-10 10:00:00 9 0 Calma 3 Noroeste 0 -- -- 82
2020-03-10 09:00:00 5.5 0 Calma 5 Oeste 0 -- -- 92
2020-03-10 08:00:00 4.7 0 Calma 6 Noroeste 0 -- -- 91
2020-03-10 07:00:00 4.9 0 Calma 6 Norte 0 -- -- 88
2020-03-10 06:00:00 5.6 3 Norte 6 Noroeste 0 -- -- 86
2020-03-10 05:00:00 6 2 Norte 8 Norte 0 -- -- 84
2020-03-10 04:00:00 7.8 7 Norte 12 Oeste 0 -- -- 76
2020-03-10 03:00:00 7.8 7 Norte 14 Noroeste 0 -- -- 74
2020-03-10 02:00:00 5.5 4 Norte 8 Norte 0 -- -- 83
2020-03-10 01:00:00 6 3 Noroeste 6 Norte 0 -- -- 80
2020-03-10 00:00:00 7 2 Nordeste 10 Norte 0 -- -- 75
2020-03-09 23:00:00 7.8 4 Norte 9 Norte 0 -- -- 71
2020-03-09 22:00:00 9.2 3 Norte 8 Oeste 0 -- -- 65
2020-03-09 21:00:00 11 5 Noroeste 12 Noroeste 0 -- -- 59
2020-03-09 20:00:00 14.1 8 Oeste 17 Oeste 0 -- -- 51
2020-03-09 19:00:00 16.6 6 Oeste 24 Oeste 0 -- -- 40
2020-03-09 18:00:00 17.7 16 Sudoeste 33 Sudoeste 0 -- -- 34
2020-03-09 17:00:00 18.3 16 Sudoeste 31 Sudoeste 0 -- -- 32
2020-03-09 16:00:00 18.2 19 Sudoeste 35 Sudoeste 0 -- -- 34
2020-03-09 15:00:00 17.6 18 Oeste 40 Oeste 0 -- -- 38
2020-03-09 14:00:00 16.4 22 Sudoeste 38 Oeste 0 -- -- 45
2020-03-09 13:00:00 15.2 23 Sudoeste 36 Sudoeste 0 -- -- 42
2020-03-09 12:00:00 13.8 15 Sudoeste 44 Sudoeste 0 -- -- 46
2020-03-09 11:00:00 11.6 18 Sudoeste 42 Sudoeste 0 -- -- 58
2020-03-09 10:00:00 10 21 Sudoeste 37 Sudoeste 0 -- -- 63
2020-03-09 09:00:00 8.5 13 Oeste 23 Sudoeste 0 -- -- 69
2020-03-09 08:00:00 7.5 10 Oeste 21 Noroeste 0 -- -- 74
2020-03-09 07:00:00 8.1 9 Oeste 24 Oeste 0 -- -- 74
2020-03-09 06:00:00 9 11 Sudoeste 21 Sudoeste 0 -- -- 72
2020-03-09 05:00:00 9.6 8 Sudoeste 27 Sudoeste 0 -- -- 71
2020-03-09 04:00:00 10 12 Oeste 31 Oeste 0 -- -- 70
2020-03-09 03:00:00 10.2 13 Oeste 32 Sudoeste 0 -- -- 72
2020-03-09 02:00:00 10.6 12 Sudoeste 21 Sudoeste 0 -- -- 73
2020-03-09 01:00:00 9.3 6 Oeste 14 Sudoeste 0 -- -- 82
2020-03-09 00:00:00 10.3 5 Oeste 19 Oeste 0 -- -- 79
2020-03-08 23:00:00 8.7 6 Oeste 13 Oeste 0 -- -- 87
2020-03-08 22:00:00 7.9 2 Noroeste 6 Noroeste 0 -- -- 87
2020-03-08 21:00:00 9.4 4 Norte 10 Oeste 0 -- -- 81
2020-03-08 20:00:00 11.5 3 Norte 22 Sudoeste 0 -- -- 73
2020-03-08 19:00:00 13.7 10 Sudoeste 32 Oeste 0 -- -- 64
2020-03-08 18:00:00 14.5 16 Oeste 32 Sudoeste 0 -- -- 60
2020-03-08 17:00:00 14.6 6 Oeste 17 Sur 0 -- -- 54
2020-03-08 16:00:00 14.1 11 Oeste 22 Oeste 0 -- -- 48
2020-03-08 15:00:00 14.6 8 Noroeste 27 Noroeste 0 -- -- 45
2020-03-08 14:00:00 14.4 9 Sudoeste 24 Oeste 0 -- -- 47
2020-03-08 13:00:00 15.2 12 Oeste 23 Oeste 0 -- -- 42
2020-03-08 12:00:00 13.1 3 Sudeste 7 Sur 0 -- -- 58
2020-03-08 11:00:00 8.3 0 Calma 5 Este 0 -- -- 77
2020-03-08 10:00:00 5.4 2 Este 5 Este 0 -- -- 94
2020-03-08 09:00:00 0.4 0 Calma 4 Sudeste 0 -- -- 98
2020-03-08 08:00:00 -1 0 Calma 4 Norte 0 -- -- 96
2020-03-08 07:00:00 -0.8 0 Calma 4 Este 0 -- -- 95
2020-03-08 06:00:00 -0.4 0 Calma 4 Norte 0 -- -- 94
2020-03-08 05:00:00 0.1 2 Norte 4 Norte 0 -- -- 94
2020-03-08 04:00:00 0.5 0 Calma 5 Este 0 -- -- 93
2020-03-08 03:00:00 1.5 3 Norte 6 Norte 0 -- -- 92
2020-03-08 02:00:00 2.1 3 Norte 9 Oeste 0 -- -- 90
2020-03-08 01:00:00 2.6 2 Noroeste 4 Norte 0 -- -- 90
2020-03-08 00:00:00 3.7 3 Norte 8 Noroeste 0 -- -- 87
2020-03-07 23:00:00 4.7 3 Norte 8 Norte 0 -- -- 84
2020-03-07 22:00:00 6 3 Norte 10 Noroeste 0 -- -- 80
2020-03-07 21:00:00 7.7 4 Norte 9 Noroeste 0 -- -- 74
2020-03-07 20:00:00 10.9 4 Noroeste 8 Oeste 0 -- -- 65
2020-03-07 19:00:00 15.3 4 Noroeste 21 Oeste 0 -- -- 52
2020-03-07 18:00:00 18.6 7 Oeste 26 Oeste 0 -- -- 39
2020-03-07 17:00:00 19 10 Oeste 23 Noroeste 0 -- -- 39
2020-03-07 16:00:00 19.4 7 Noroeste 25 Sudoeste 0 -- -- 40
2020-03-07 15:00:00 18.2 5 Sudeste 10 Sudoeste 0 -- -- 44
2020-03-07 14:00:00 16.5 5 Sudoeste 13 Sur 0 -- -- 47
2020-03-07 13:00:00 14.7 6 Este 15 Sudeste 0 -- -- 51
2020-03-07 12:00:00 13.1 10 Este 20 Este 0 -- -- 55
2020-03-07 11:00:00 11.4 3 Sudeste 12 Sudeste 0 -- -- 63
2020-03-07 10:00:00 8.9 5 Este 10 Este 0 -- -- 72
2020-03-07 09:00:00 5.1 4 Este 17 Oeste 0 -- -- 83
2020-03-07 08:00:00 7.1 11 Oeste 21 Sudoeste 0 -- -- 75
2020-03-07 07:00:00 6.5 4 Sudoeste 23 Oeste 0 -- -- 75
2020-03-07 06:00:00 6.9 15 Oeste 31 Sudoeste 0 -- -- 72
2020-03-07 05:00:00 6.5 15 Oeste 28 Oeste 0 -- -- 71
2020-03-07 04:00:00 6.6 14 Oeste 24 Oeste 0 -- -- 69
2020-03-07 03:00:00 7.1 13 Oeste 26 Oeste 0 -- -- 65
2020-03-07 02:00:00 7.4 14 Oeste 25 Oeste 0 -- -- 61
2020-03-07 01:00:00 7.5 8 Oeste 23 Sudoeste 0 -- -- 59
2020-03-07 00:00:00 8 9 Oeste 26 Noroeste 0 -- -- 55
2020-03-06 23:00:00 8.6 10 Oeste 32 Noroeste 0 -- -- 53
2020-03-06 22:00:00 9.1 7 Oeste 21 Oeste 0 -- -- 53
2020-03-06 21:00:00 9.7 4 Noroeste 24 Oeste 0 -- -- 49
2020-03-06 20:00:00 10.1 8 Noroeste 32 Norte 0 -- -- 49
2020-03-06 19:00:00 11.3 6 Norte 30 Norte 0 -- -- 45
2020-03-06 18:00:00 13.2 5 Noroeste 33 Noroeste 0 -- -- 42
2020-03-06 17:00:00 13.5 15 Sudoeste 42 Sudoeste 0 -- -- 42
2020-03-06 16:00:00 13.9 12 Noroeste 43 Oeste 0 -- -- 43
2020-03-06 15:00:00 13.5 15 Oeste 44 Noroeste 0 -- -- 43
2020-03-06 14:00:00 11.8 13 Norte 50 Sudoeste 0 -- -- 49
2020-03-06 13:00:00 10.9 18 Oeste 38 Sudoeste 0 -- -- 55
2020-03-06 12:00:00 9.9 14 Oeste 53 Oeste 0 -- -- 57
2020-03-06 11:00:00 9.3 18 Oeste 55 Oeste 0 -- -- 62
2020-03-06 10:00:00 8.2 18 Oeste 40 Oeste 0 -- -- 67
2020-03-06 09:00:00 7.4 9 Noroeste 26 Sudoeste 0 -- -- 68
2020-03-06 08:00:00 7.2 10 Oeste 27 Oeste 0 -- -- 67
2020-03-06 07:00:00 8 14 Oeste 35 Oeste 0 -- -- 65
2020-03-06 06:00:00 8.6 19 Oeste 45 Oeste 0 -- -- 66
2020-03-06 05:00:00 9.1 14 Oeste 44 Oeste 0 -- -- 70
2020-03-06 04:00:00 9.4 11 Oeste 46 Sudoeste 0 -- -- 73
2020-03-06 03:00:00 8.5 3 Sur 15 Nordeste 0 -- -- 75
2020-03-06 02:00:00 8.4 2 Nordeste 21 Noroeste 0 -- -- 75
2020-03-06 01:00:00 8.6 5 Noroeste 24 Oeste 0 -- -- 70
2020-03-06 00:00:00 9 11 Noroeste 30 Noroeste 0 -- -- 69
2020-03-05 23:00:00 9.1 10 Oeste 28 Sudoeste 0 -- -- 68
2020-03-05 22:00:00 9.6 6 Oeste 26 Sudoeste 0 -- -- 63
2020-03-05 21:00:00 10.2 14 Sudoeste 39 Sudoeste 0 -- -- 61
2020-03-05 20:00:00 11.4 15 Sudoeste 42 Sudoeste 0 -- -- 55
2020-03-05 19:00:00 12.4 16 Oeste 38 Oeste 0 -- -- 59
2020-03-05 18:00:00 13.4 14 Oeste 40 Sudoeste 0 -- -- 52
2020-03-05 17:00:00 13.9 11 Oeste 32 Oeste 0 -- -- 55
2020-03-05 16:00:00 14.1 19 Oeste 36 Noroeste 0 -- -- 54
2020-03-05 15:00:00 14 10 Oeste 31 Oeste 0 -- -- 57
2020-03-05 14:00:00 12.8 13 Oeste 28 Oeste 0 -- -- 61
2020-03-05 13:00:00 12.3 10 Oeste 28 Sudoeste 0.2 -- -- 64
2020-03-05 12:00:00 11.7 14 Oeste 29 Oeste 0 -- -- 63
2020-03-05 11:00:00 10.8 5 Oeste 35 Sudoeste 0 -- -- 74
2020-03-05 10:00:00 10.4 19 Oeste 41 Sudoeste 0.2 -- -- 78
2020-03-05 09:00:00 11.2 10 Oeste 27 Noroeste 0.8 -- -- 91
2020-03-05 08:00:00 11.2 2 Norte 11 Norte 0.4 -- -- 93
2020-03-05 07:00:00 12.2 6 Sudoeste 33 Oeste 0.2 -- -- 85
2020-03-05 06:00:00 12.3 6 Sur 22 Sudeste 0 -- -- 86
2020-03-05 05:00:00 10.9 3 Nordeste 14 Sur 0 -- -- 94
2020-03-05 04:00:00 10.7 0 Calma 10 Sur 0 -- -- 95
2020-03-05 03:00:00 10.6 0 Calma 4 Este 0 -- -- 94
2020-03-05 02:00:00 10.7 0 Calma 4 Sudeste 0 -- -- 93
2020-03-05 01:00:00 11 0 Calma 4 Oeste 0 -- -- 93
2020-03-05 00:00:00 11.2 0 Calma 5 Este 0 -- -- 92
2020-03-04 23:00:00 11.5 2 Noroeste 7 Noroeste 0 -- -- 91
2020-03-04 22:00:00 11.8 2 Oeste 4 Sudoeste 0 -- -- 89
2020-03-04 21:00:00 12.4 2 Norte 5 Norte 0 -- -- 87
2020-03-04 20:00:00 13.2 0 Calma 4 Norte 0 -- -- 85
2020-03-04 19:00:00 14.2 0 Calma 4 Sur 0 -- -- 80
2020-03-04 18:00:00 14.5 2 Nordeste 12 Norte 0 -- -- 75
2020-03-04 17:00:00 15.3 7 Norte 15 Norte 0 -- -- 71
2020-03-04 16:00:00 16.1 4 Noroeste 17 Oeste 0 -- -- 61
2020-03-04 15:00:00 15.7 0 Calma 23 Oeste 0 -- -- 66
2020-03-04 14:00:00 15.5 5 Oeste 16 Oeste 0 -- -- 64
2020-03-04 13:00:00 14.5 6 Sudoeste 13 Oeste 0 -- -- 70
2020-03-04 12:00:00 14.1 8 Oeste 18 Oeste 0 -- -- 76
2020-03-04 11:00:00 13.1 0 Calma 8 Este 0 -- -- 84
2020-03-04 10:00:00 11.9 0 Calma 6 Oeste 0 -- -- 95
2020-03-04 09:00:00 10.7 2 Sudeste 9 Sudoeste 0 -- -- 97
2020-03-04 08:00:00 10.3 3 Norte 6 Norte 0 -- -- 97
2020-03-04 07:00:00 10.3 2 Nordeste 5 Noroeste 0 -- -- 97
2020-03-04 06:00:00 10.5 0 Calma 5 Nordeste 0 -- -- 96
2020-03-04 05:00:00 11.2 3 Oeste 6 Oeste 0 -- -- 96
2020-03-04 04:00:00 11.4 0 Calma 3 Noroeste 0 -- -- 95
2020-03-04 03:00:00 11.5 2 Sur 4 Norte 0 -- -- 94
2020-03-04 02:00:00 11.7 0 Calma 14 Este 0 -- -- 94
2020-03-04 01:00:00 11.5 4 Nordeste 9 Este 0 -- -- 96
2020-03-04 00:00:00 11.3 0 Calma 8 Oeste 0 -- -- 94
2020-03-03 23:00:00 11.4 2 Norte 7 Este 0 -- -- 94
2020-03-03 22:00:00 11.4 4 Sudeste 14 Este 0 -- -- 94
2020-03-03 21:00:00 11.3 6 Este 14 Este 0 -- -- 94
2020-03-03 20:00:00 11.1 6 Este 16 Este 0 -- -- 94
2020-03-03 19:00:00 11.1 4 Este 14 Este 0 -- -- 93
2020-03-03 18:00:00 10.8 5 Este 17 Este 0 -- -- 93
2020-03-03 17:00:00 10.4 9 Este 23 Sudeste 0 -- -- 93
2020-03-03 16:00:00 9.9 10 Este 21 Este 0 -- -- 93
2020-03-03 15:00:00 9.8 11 Este 19 Sudeste 0 -- -- 92
2020-03-03 14:00:00 9.4 6 Este 19 Este 0 -- -- 90
2020-03-03 13:00:00 9.8 9 Este 22 Este 0 -- -- 85
2020-03-03 12:00:00 9.2 7 Nordeste 18 Norte 0 -- -- 86
2020-03-03 11:00:00 8.6 6 Sudeste 18 Este 0 -- -- 86
2020-03-03 10:00:00 7.9 5 Nordeste 12 Norte 0 -- -- 86
2020-03-03 09:00:00 6.7 2 Nordeste 7 Norte 0 -- -- 89
2020-03-03 08:00:00 6 0 Calma 5 Norte 0 -- -- 90
2020-03-03 07:00:00 5.9 0 Calma 4 Nordeste 0 -- -- 89
2020-03-03 06:00:00 5.8 2 Sur 8 Sur 0 -- -- 89
2020-03-03 05:00:00 5.7 3 Sudeste 8 Sur 0 -- -- 89
2020-03-03 04:00:00 5.5 0 Calma 4 Sur 0 -- -- 90
2020-03-03 03:00:00 5.6 0 Calma 3 Norte 0 -- -- 89
2020-03-03 02:00:00 5.3 0 Calma 3 Noroeste 0 -- -- 88
2020-03-03 01:00:00 5.8 0 Calma 4 Noroeste 0 -- -- 86
2020-03-03 00:00:00 5.5 0 Calma 4 Sudoeste 0 -- -- 84
2020-03-02 23:00:00 5.2 0 Calma 5 Sudoeste 0 -- -- 84
2020-03-02 22:00:00 4.7 2 Norte 6 Nordeste 0 -- -- 83
2020-03-02 21:00:00 6.1 4 Sur 6 Norte 0 -- -- 77
2020-03-02 20:00:00 7.9 3 Oeste 24 Oeste 0 -- -- 68
2020-03-02 19:00:00 9.5 9 Oeste 30 Sudoeste 0 -- -- 58
2020-03-02 18:00:00 10.6 17 Oeste 32 Sudoeste 0 -- -- 58
2020-03-02 17:00:00 11.5 9 Oeste 42 Oeste 0 -- -- 54
2020-03-02 16:00:00 11.3 19 Oeste 49 Sudoeste 0.2 -- -- 54
2020-03-02 15:00:00 10.5 15 Oeste 53 Oeste 0 -- -- 61
2020-03-02 14:00:00 12 21 Oeste 49 Oeste 0 -- -- 50
2020-03-02 13:00:00 11.2 22 Oeste 53 Oeste 0.2 -- -- 55
2020-03-02 12:00:00 9.8 10 Oeste 43 Sudoeste 0.2 -- -- 72
2020-03-02 11:00:00 8.5 22 Oeste 49 Sudoeste 0.2 -- -- 75
2020-03-02 10:00:00 10.6 21 Oeste 45 Noroeste 0 -- -- 59
2020-03-02 09:00:00 10.2 18 Oeste 47 Oeste 0 -- -- 60
2020-03-02 08:00:00 10.5 18 Noroeste 45 Sudoeste 0 -- -- 64
2020-03-02 07:00:00 11.9 20 Oeste 60 Sudoeste 0 -- -- 60
2020-03-02 06:00:00 13.6 24 Oeste 63 Oeste 0 -- -- 62
2020-03-02 05:00:00 14.7 27 Oeste 54 Oeste 0 -- -- 66
2020-03-02 04:00:00 13.3 15 Oeste 38 Sur 1.2 -- -- 79
2020-03-02 03:00:00 12.9 5 Oeste 27 Oeste 0.4 -- -- 82
2020-03-02 02:00:00 12.8 12 Oeste 36 Sudoeste 1 -- -- 78
2020-03-02 01:00:00 13 19 Oeste 44 Sudoeste 0 -- -- 76
2020-03-02 00:00:00 12.7 13 Sudoeste 42 Sudoeste 1 -- -- 84
2020-03-01 23:00:00 13 11 Sudoeste 31 Sudoeste 0.6 -- -- 76
2020-03-01 22:00:00 12.9 15 Sudoeste 45 Oeste 1.8 -- -- 83
2020-03-01 21:00:00 12.9 10 Sudoeste 42 Oeste 1.6 -- -- 86
2020-03-01 20:00:00 12.8 4 Nordeste 21 Sudoeste 0.6 -- -- 88
2020-03-01 19:00:00 13.5 7 Sudoeste 22 Sudoeste 1.8 -- -- 83
2020-03-01 18:00:00 15.3 7 Sudoeste 24 Oeste 0 -- -- 65
2020-03-01 17:00:00 15.4 7 Sudoeste 23 Sudoeste 0 -- -- 63
2020-03-01 16:00:00 15.1 8 Oeste 40 Oeste 0.6 -- -- 73
2020-03-01 15:00:00 16.7 10 Sudoeste 34 Oeste 0 -- -- 62
2020-03-01 14:00:00 14.8 6 Este 21 Este 0 -- -- 77
2020-03-01 13:00:00 11.8 14 Este 22 Nordeste 0 -- -- 87
2020-03-01 12:00:00 11.6 5 Nordeste 13 Norte 0 -- -- 87
2020-03-01 11:00:00 10.7 5 Norte 18 Nordeste 0 -- -- 87
2020-03-01 10:00:00 11.4 7 Noroeste 30 Sudoeste 0 -- -- 80
2020-03-01 09:00:00 10.7 5 Sur 26 Sudoeste 0 -- -- 79
2020-03-01 08:00:00 10.2 8 Sudoeste 23 Sudoeste 0 -- -- 79
2020-03-01 07:00:00 9.3 3 Nordeste 10 Nordeste 0 -- -- 87
2020-03-01 06:00:00 9 2 Norte 9 Norte 0 -- -- 88
2020-03-01 05:00:00 8.8 2 Este 9 Este 0 -- -- 87
2020-03-01 04:00:00 8.2 0 Calma 6 Norte 0 -- -- 89
2020-03-01 03:00:00 7.9 0 Calma 4 Nordeste 0 -- -- 88
2020-03-01 02:00:00 7.6 0 Calma 6 Noroeste 0 -- -- 88
2020-03-01 01:00:00 7.2 0 Calma 5 Norte 0 -- -- 88
2020-03-01 00:00:00 6.9 0 Calma 4 Sudeste 0 -- -- 87
2020-02-29 23:00:00 7.1 0 Calma 5 Sudeste 0 -- -- 85
2020-02-29 22:00:00 7.3 0 Calma 5 Sudeste 0 -- -- 83
2020-02-29 21:00:00 8.1 0 Calma 6 Norte 0 -- -- 76
2020-02-29 20:00:00 10.6 0 Calma 20 Sudoeste 0 -- -- 66
2020-02-29 19:00:00 12.6 8 Noroeste 22 Noroeste 0 -- -- 57
2020-02-29 18:00:00 13.5 10 Noroeste 22 Noroeste 0 -- -- 55
2020-02-29 17:00:00 15 8 Noroeste 27 Oeste 0 -- -- 56
2020-02-29 16:00:00 16.1 9 Noroeste 29 Sudoeste 0 -- -- 54
2020-02-29 15:00:00 16.4 9 Sudoeste 22 Oeste 0 -- -- 60
2020-02-29 14:00:00 14.5 8 Sudoeste 19 Oeste 0 -- -- 71
2020-02-29 13:00:00 12.9 6 Nordeste 18 Este 0 -- -- 87
2020-02-29 12:00:00 11.1 2 Nordeste 10 Este 0.2 -- -- 93
2020-02-29 11:00:00 10 5 Nordeste 12 Este 0.2 -- -- 95
2020-02-29 10:00:00 8.6 4 Nordeste 21 Este 0.2 -- -- 95
2020-02-29 09:00:00 7.9 8 Nordeste 17 Este 0 -- -- 94
2020-02-29 08:00:00 7.8 8 Nordeste 15 Nordeste 0 -- -- 93
2020-02-29 07:00:00 6.8 0 Calma 7 Sudeste 0 -- -- 89
2020-02-29 06:00:00 7 3 Sudeste 10 Norte 0 -- -- 82
2020-02-29 05:00:00 8.7 5 Este 18 Este 0 -- -- 78
2020-02-29 04:00:00 9.9 6 Nordeste 31 Este 0 -- -- 70
2020-02-29 03:00:00 11.2 8 Sur 28 Noroeste 0 -- -- 60
2020-02-29 02:00:00 11.5 10 Sudoeste 26 Oeste 0 -- -- 54
2020-02-29 01:00:00 6.7 6 Sudeste 17 Este 0 -- -- 87
2020-02-29 00:00:00 6.4 4 Este 9 Sudeste 0 -- -- 86